sensor_id;sensor_type;location;lat;lon;timestamp;temperature;humidity
69776;DHT22;57049;51.450;-2.516;2022-07-21T00:01:13;17.02;71.25
69776;DHT22;57049;51.450;-2.516;2022-07-21T00:03:39;16.98;71.39
69776;DHT22;57049;51.450;-2.516;2022-07-21T00:06:05;16.91;71.78
69776;DHT22;57049;51.450;-2.516;2022-07-21T00:08:30;16.81;71.91
69776;DHT22;57049;51.450;-2.516;2022-07-21T00:10:56;16.74;72.33
69776;DHT22;57049;51.450;-2.516;2022-07-21T00:13:21;16.68;71.99
69776;DHT22;57049;51.450;-2.516;2022-07-21T00:15:47;16.67;72.13
69776;DHT22;57049;51.450;-2.516;2022-07-21T00:18:15;16.65;72.22
69776;DHT22;57049;51.450;-2.516;2022-07-21T00:20:40;16.67;72.14
69776;DHT22;57049;51.450;-2.516;2022-07-21T00:23:06;16.65;72.12
69776;DHT22;57049;51.450;-2.516;2022-07-21T00:25:32;16.65;72.21
69776;DHT22;57049;51.450;-2.516;2022-07-21T00:27:57;16.63;72.19
69776;DHT22;57049;51.450;-2.516;2022-07-21T00:30:23;16.61;72.28
69776;DHT22;57049;51.450;-2.516;2022-07-21T00:32:48;16.63;72.25
69776;DHT22;57049;51.450;-2.516;2022-07-21T00:35:14;16.74;71.97
69776;DHT22;57049;51.450;-2.516;2022-07-21T00:37:41;16.68;72.23
69776;DHT22;57049;51.450;-2.516;2022-07-21T00:40:08;16.64;72.42
69776;DHT22;57049;51.450;-2.516;2022-07-21T00:42:35;16.60;72.43
69776;DHT22;57049;51.450;-2.516;2022-07-21T00:45:01;16.67;72.48
69776;DHT22;57049;51.450;-2.516;2022-07-21T00:47:30;16.68;72.39
69776;DHT22;57049;51.450;-2.516;2022-07-21T00:49:57;16.63;73.16
69776;DHT22;57049;51.450;-2.516;2022-07-21T00:52:23;16.71;72.78
69776;DHT22;57049;51.450;-2.516;2022-07-21T00:54:49;16.71;72.39
69776;DHT22;57049;51.450;-2.516;2022-07-21T00:57:15;16.74;72.57
69776;DHT22;57049;51.450;-2.516;2022-07-21T00:59:41;16.74;72.26
69776;DHT22;57049;51.450;-2.516;2022-07-21T01:02:08;16.69;72.65
69776;DHT22;57049;51.450;-2.516;2022-07-21T01:04:34;16.63;72.70
69776;DHT22;57049;51.450;-2.516;2022-07-21T01:07:01;16.68;72.91
69776;DHT22;57049;51.450;-2.516;2022-07-21T01:09:27;16.75;72.33
69776;DHT22;57049;51.450;-2.516;2022-07-21T01:11:52;16.78;72.47
69776;DHT22;57049;51.450;-2.516;2022-07-21T01:14:18;16.85;72.05
69776;DHT22;57049;51.450;-2.516;2022-07-21T01:16:43;16.77;72.46
69776;DHT22;57049;51.450;-2.516;2022-07-21T01:19:09;16.72;72.81
69776;DHT22;57049;51.450;-2.516;2022-07-21T01:21:37;16.88;72.01
69776;DHT22;57049;51.450;-2.516;2022-07-21T01:24:04;16.79;72.34
69776;DHT22;57049;51.450;-2.516;2022-07-21T01:26:31;16.89;71.45
69776;DHT22;57049;51.450;-2.516;2022-07-21T01:28:57;16.78;71.80
69776;DHT22;57049;51.450;-2.516;2022-07-21T01:31:23;16.72;71.79
69776;DHT22;57049;51.450;-2.516;2022-07-21T01:33:50;16.74;71.48
69776;DHT22;57049;51.450;-2.516;2022-07-21T01:36:16;16.72;71.45
69776;DHT22;57049;51.450;-2.516;2022-07-21T01:38:41;16.67;71.41
69776;DHT22;57049;51.450;-2.516;2022-07-21T01:41:25;16.63;71.25
69776;DHT22;57049;51.450;-2.516;2022-07-21T01:44:04;16.56;71.38
69776;DHT22;57049;51.450;-2.516;2022-07-21T01:46:36;16.46;71.70
69776;DHT22;57049;51.450;-2.516;2022-07-21T01:49:02;16.46;71.88
69776;DHT22;57049;51.450;-2.516;2022-07-21T01:51:28;16.44;71.81
69776;DHT22;57049;51.450;-2.516;2022-07-21T01:53:54;16.43;71.37
69776;DHT22;57049;51.450;-2.516;2022-07-21T01:56:20;16.44;71.46
69776;DHT22;57049;51.450;-2.516;2022-07-21T01:58:47;16.41;71.23
69776;DHT22;57049;51.450;-2.516;2022-07-21T02:01:15;16.48;70.91
69776;DHT22;57049;51.450;-2.516;2022-07-21T02:03:41;16.40;70.70
69776;DHT22;57049;51.450;-2.516;2022-07-21T02:06:06;16.37;70.98
69776;DHT22;57049;51.450;-2.516;2022-07-21T02:08:34;16.28;71.16
69776;DHT22;57049;51.450;-2.516;2022-07-21T02:10:59;16.27;71.47
69776;DHT22;57049;51.450;-2.516;2022-07-21T02:13:25;16.37;70.61
69776;DHT22;57049;51.450;-2.516;2022-07-21T02:15:51;16.20;70.87
69776;DHT22;57049;51.450;-2.516;2022-07-21T02:18:17;16.17;71.31
69776;DHT22;57049;51.450;-2.516;2022-07-21T02:20:43;16.18;71.18
69776;DHT22;57049;51.450;-2.516;2022-07-21T02:23:10;16.14;71.53
69776;DHT22;57049;51.450;-2.516;2022-07-21T02:25:36;16.14;71.28
69776;DHT22;57049;51.450;-2.516;2022-07-21T02:28:01;16.18;71.03
69776;DHT22;57049;51.450;-2.516;2022-07-21T02:30:27;16.17;71.21
69776;DHT22;57049;51.450;-2.516;2022-07-21T02:32:52;16.13;71.14
69776;DHT22;57049;51.450;-2.516;2022-07-21T02:35:18;15.97;71.60
69776;DHT22;57049;51.450;-2.516;2022-07-21T02:37:44;15.95;71.66
69776;DHT22;57049;51.450;-2.516;2022-07-21T02:40:09;15.90;72.06
69776;DHT22;57049;51.450;-2.516;2022-07-21T02:42:35;15.87;72.34
69776;DHT22;57049;51.450;-2.516;2022-07-21T02:45:06;15.95;71.98
69776;DHT22;57049;51.450;-2.516;2022-07-21T02:47:32;15.95;71.73
69776;DHT22;57049;51.450;-2.516;2022-07-21T02:49:57;15.83;72.37
69776;DHT22;57049;51.450;-2.516;2022-07-21T02:52:23;15.78;72.54
69776;DHT22;57049;51.450;-2.516;2022-07-21T02:54:48;15.78;72.33
69776;DHT22;57049;51.450;-2.516;2022-07-21T02:57:14;15.73;72.59
69776;DHT22;57049;51.450;-2.516;2022-07-21T02:59:39;15.69;72.65
69776;DHT22;57049;51.450;-2.516;2022-07-21T03:02:04;15.66;72.55
69776;DHT22;57049;51.450;-2.516;2022-07-21T03:04:30;15.67;72.61
69776;DHT22;57049;51.450;-2.516;2022-07-21T03:06:55;15.72;72.57
69776;DHT22;57049;51.450;-2.516;2022-07-21T03:09:21;15.63;72.91
69776;DHT22;57049;51.450;-2.516;2022-07-21T03:11:46;15.58;72.95
69776;DHT22;57049;51.450;-2.516;2022-07-21T03:14:12;15.54;73.33
69776;DHT22;57049;51.450;-2.516;2022-07-21T03:16:37;15.49;73.55
69776;DHT22;57049;51.450;-2.516;2022-07-21T03:19:02;15.58;73.15
69776;DHT22;57049;51.450;-2.516;2022-07-21T03:21:28;15.54;73.16
69776;DHT22;57049;51.450;-2.516;2022-07-21T03:23:53;15.42;73.56
69776;DHT22;57049;51.450;-2.516;2022-07-21T03:26:19;15.32;73.99
69776;DHT22;57049;51.450;-2.516;2022-07-21T03:28:44;15.35;73.94
69776;DHT22;57049;51.450;-2.516;2022-07-21T03:31:10;15.36;73.69
69776;DHT22;57049;51.450;-2.516;2022-07-21T03:33:36;15.24;74.08
69776;DHT22;57049;51.450;-2.516;2022-07-21T03:36:02;15.15;74.49
69776;DHT22;57049;51.450;-2.516;2022-07-21T03:38:28;15.11;74.64
69776;DHT22;57049;51.450;-2.516;2022-07-21T03:40:53;15.18;74.41
69776;DHT22;57049;51.450;-2.516;2022-07-21T03:43:19;15.17;74.63
69776;DHT22;57049;51.450;-2.516;2022-07-21T03:45:44;15.03;74.91
69776;DHT22;57049;51.450;-2.516;2022-07-21T03:48:10;14.95;75.17
69776;DHT22;57049;51.450;-2.516;2022-07-21T03:50:38;14.98;75.18
69776;DHT22;57049;51.450;-2.516;2022-07-21T03:53:04;14.88;75.65
69776;DHT22;57049;51.450;-2.516;2022-07-21T03:55:30;14.87;75.75
69776;DHT22;57049;51.450;-2.516;2022-07-21T03:58:01;14.85;75.63
69776;DHT22;57049;51.450;-2.516;2022-07-21T04:00:35;14.80;75.82
69776;DHT22;57049;51.450;-2.516;2022-07-21T04:03:02;14.81;75.93
69776;DHT22;57049;51.450;-2.516;2022-07-21T04:05:28;14.88;75.44
69776;DHT22;57049;51.450;-2.516;2022-07-21T04:07:54;14.77;76.07
69776;DHT22;57049;51.450;-2.516;2022-07-21T04:10:25;14.70;76.40
69776;DHT22;57049;51.450;-2.516;2022-07-21T04:12:52;14.70;76.50
69776;DHT22;57049;51.450;-2.516;2022-07-21T04:15:18;14.64;76.89
69776;DHT22;57049;51.450;-2.516;2022-07-21T04:17:44;14.56;77.03
69776;DHT22;57049;51.450;-2.516;2022-07-21T04:20:10;14.59;76.98
69776;DHT22;57049;51.450;-2.516;2022-07-21T04:22:37;14.56;76.84
69776;DHT22;57049;51.450;-2.516;2022-07-21T04:25:04;14.56;77.10
69776;DHT22;57049;51.450;-2.516;2022-07-21T04:27:30;14.63;76.94
69776;DHT22;57049;51.450;-2.516;2022-07-21T04:29:55;14.64;76.76
69776;DHT22;57049;51.450;-2.516;2022-07-21T04:32:21;14.66;76.79
69776;DHT22;57049;51.450;-2.516;2022-07-21T04:34:47;14.60;76.81
69776;DHT22;57049;51.450;-2.516;2022-07-21T04:37:12;14.66;76.73
69776;DHT22;57049;51.450;-2.516;2022-07-21T04:39:38;14.63;77.24
69776;DHT22;57049;51.450;-2.516;2022-07-21T04:42:03;14.66;76.47
69776;DHT22;57049;51.450;-2.516;2022-07-21T04:44:29;14.60;76.96
69776;DHT22;57049;51.450;-2.516;2022-07-21T04:46:54;14.64;77.00
69776;DHT22;57049;51.450;-2.516;2022-07-21T04:49:20;14.67;76.83
69776;DHT22;57049;51.450;-2.516;2022-07-21T04:51:45;14.64;76.86
69776;DHT22;57049;51.450;-2.516;2022-07-21T04:54:11;14.64;76.99
69776;DHT22;57049;51.450;-2.516;2022-07-21T04:56:40;14.66;76.97
69776;DHT22;57049;51.450;-2.516;2022-07-21T04:59:05;14.66;76.93
69776;DHT22;57049;51.450;-2.516;2022-07-21T05:01:31;14.66;77.03
69776;DHT22;57049;51.450;-2.516;2022-07-21T05:03:56;14.73;76.88
69776;DHT22;57049;51.450;-2.516;2022-07-21T05:06:22;14.69;76.82
69776;DHT22;57049;51.450;-2.516;2022-07-21T05:08:47;14.76;76.98
69776;DHT22;57049;51.450;-2.516;2022-07-21T05:11:13;14.81;76.77
69776;DHT22;57049;51.450;-2.516;2022-07-21T05:13:38;14.87;76.47
69776;DHT22;57049;51.450;-2.516;2022-07-21T05:16:04;14.93;76.09
69776;DHT22;57049;51.450;-2.516;2022-07-21T05:18:29;14.93;76.05
69776;DHT22;57049;51.450;-2.516;2022-07-21T05:20:55;14.98;75.96
69776;DHT22;57049;51.450;-2.516;2022-07-21T05:23:20;15.07;75.44
69776;DHT22;57049;51.450;-2.516;2022-07-21T05:25:46;15.23;74.99
69776;DHT22;57049;51.450;-2.516;2022-07-21T05:28:11;15.31;74.87
69776;DHT22;57049;51.450;-2.516;2022-07-21T05:30:37;15.44;74.36
69776;DHT22;57049;51.450;-2.516;2022-07-21T05:33:02;15.56;74.48
69776;DHT22;57049;51.450;-2.516;2022-07-21T05:35:28;15.58;73.73
69776;DHT22;57049;51.450;-2.516;2022-07-21T05:37:53;15.66;73.52
69776;DHT22;57049;51.450;-2.516;2022-07-21T05:40:18;15.73;73.16
69776;DHT22;57049;51.450;-2.516;2022-07-21T05:42:44;16.03;72.50
69776;DHT22;57049;51.450;-2.516;2022-07-21T05:45:10;16.57;70.35
69776;DHT22;57049;51.450;-2.516;2022-07-21T05:47:36;18.32;64.50
69776;DHT22;57049;51.450;-2.516;2022-07-21T05:50:02;19.33;61.21
69776;DHT22;57049;51.450;-2.516;2022-07-21T05:52:27;18.35;62.98
69776;DHT22;57049;51.450;-2.516;2022-07-21T05:54:53;17.84;65.42
69776;DHT22;57049;51.450;-2.516;2022-07-21T05:57:18;17.94;65.25
69776;DHT22;57049;51.450;-2.516;2022-07-21T05:59:44;17.80;66.02
69776;DHT22;57049;51.450;-2.516;2022-07-21T06:02:10;17.86;64.39
69776;DHT22;57049;51.450;-2.516;2022-07-21T06:04:36;17.45;66.32
69776;DHT22;57049;51.450;-2.516;2022-07-21T06:07:01;16.98;67.66
69776;DHT22;57049;51.450;-2.516;2022-07-21T06:09:27;16.92;68.05
69776;DHT22;57049;51.450;-2.516;2022-07-21T06:11:52;17.01;67.67
69776;DHT22;57049;51.450;-2.516;2022-07-21T06:14:18;16.94;68.45
69776;DHT22;57049;51.450;-2.516;2022-07-21T06:16:44;17.12;67.82
69776;DHT22;57049;51.450;-2.516;2022-07-21T06:19:09;16.95;68.41
69776;DHT22;57049;51.450;-2.516;2022-07-21T06:21:35;17.23;67.71
69776;DHT22;57049;51.450;-2.516;2022-07-21T06:24:00;17.25;67.47
69776;DHT22;57049;51.450;-2.516;2022-07-21T06:26:26;17.15;67.25
69776;DHT22;57049;51.450;-2.516;2022-07-21T06:28:53;16.91;68.66
69776;DHT22;57049;51.450;-2.516;2022-07-21T06:31:19;16.92;68.25
69776;DHT22;57049;51.450;-2.516;2022-07-21T06:33:44;16.72;68.82
69776;DHT22;57049;51.450;-2.516;2022-07-21T06:36:10;16.56;69.32
69776;DHT22;57049;51.450;-2.516;2022-07-21T06:38:35;16.48;69.76
69776;DHT22;57049;51.450;-2.516;2022-07-21T06:41:01;16.58;69.31
69776;DHT22;57049;51.450;-2.516;2022-07-21T06:43:26;16.28;70.20
69776;DHT22;57049;51.450;-2.516;2022-07-21T06:45:52;16.48;69.35
69776;DHT22;57049;51.450;-2.516;2022-07-21T06:48:17;16.43;69.88
69776;DHT22;57049;51.450;-2.516;2022-07-21T06:50:43;16.63;69.46
69776;DHT22;57049;51.450;-2.516;2022-07-21T06:53:09;16.57;69.77
69776;DHT22;57049;51.450;-2.516;2022-07-21T06:55:35;16.96;68.76
69776;DHT22;57049;51.450;-2.516;2022-07-21T06:58:14;18.31;64.05
69776;DHT22;57049;51.450;-2.516;2022-07-21T07:00:41;19.71;60.26
69776;DHT22;57049;51.450;-2.516;2022-07-21T07:03:07;19.57;60.48
69776;DHT22;57049;51.450;-2.516;2022-07-21T07:05:32;20.02;58.56
69776;DHT22;57049;51.450;-2.516;2022-07-21T07:07:58;20.77;56.89
69776;DHT22;57049;51.450;-2.516;2022-07-21T07:10:23;20.42;56.98
69776;DHT22;57049;51.450;-2.516;2022-07-21T07:12:49;20.87;56.11
69776;DHT22;57049;51.450;-2.516;2022-07-21T07:15:14;21.01;56.22
69776;DHT22;57049;51.450;-2.516;2022-07-21T07:17:40;21.45;54.65
69776;DHT22;57049;51.450;-2.516;2022-07-21T07:20:06;21.41;54.60
69776;DHT22;57049;51.450;-2.516;2022-07-21T07:22:32;22.05;53.82
69776;DHT22;57049;51.450;-2.516;2022-07-21T07:24:58;21.79;53.41
69776;DHT22;57049;51.450;-2.516;2022-07-21T07:27:23;21.62;53.52
69776;DHT22;57049;51.450;-2.516;2022-07-21T07:29:49;21.79;53.30
69776;DHT22;57049;51.450;-2.516;2022-07-21T07:32:14;21.59;54.71
69776;DHT22;57049;51.450;-2.516;2022-07-21T07:34:40;21.34;54.06
69776;DHT22;57049;51.450;-2.516;2022-07-21T07:37:05;21.88;53.00
69776;DHT22;57049;51.450;-2.516;2022-07-21T07:39:31;21.52;54.36
69776;DHT22;57049;51.450;-2.516;2022-07-21T07:41:56;23.12;51.51
69776;DHT22;57049;51.450;-2.516;2022-07-21T07:44:22;23.65;49.22
69776;DHT22;57049;51.450;-2.516;2022-07-21T07:46:48;21.86;52.90
69776;DHT22;57049;51.450;-2.516;2022-07-21T07:49:14;21.35;54.57
69776;DHT22;57049;51.450;-2.516;2022-07-21T07:51:40;21.59;54.05
69776;DHT22;57049;51.450;-2.516;2022-07-21T07:54:05;22.71;51.68
69776;DHT22;57049;51.450;-2.516;2022-07-21T07:56:32;22.28;52.36
69776;DHT22;57049;51.450;-2.516;2022-07-21T07:58:57;22.37;51.12
69776;DHT22;57049;51.450;-2.516;2022-07-21T08:01:23;23.16;50.28
69776;DHT22;57049;51.450;-2.516;2022-07-21T08:03:48;23.86;48.00
69776;DHT22;57049;51.450;-2.516;2022-07-21T08:06:14;23.62;49.95
69776;DHT22;57049;51.450;-2.516;2022-07-21T08:08:42;22.71;50.59
69776;DHT22;57049;51.450;-2.516;2022-07-21T08:11:08;23.44;50.39
69776;DHT22;57049;51.450;-2.516;2022-07-21T08:13:37;24.16;47.34
69776;DHT22;57049;51.450;-2.516;2022-07-21T08:16:06;23.41;49.69
69776;DHT22;57049;51.450;-2.516;2022-07-21T08:18:32;23.18;49.80
69776;DHT22;57049;51.450;-2.516;2022-07-21T08:20:58;22.64;51.22
69776;DHT22;57049;51.450;-2.516;2022-07-21T08:23:23;21.42;54.69
69776;DHT22;57049;51.450;-2.516;2022-07-21T08:25:49;21.18;55.79
69776;DHT22;57049;51.450;-2.516;2022-07-21T08:28:14;21.57;55.51
69776;DHT22;57049;51.450;-2.516;2022-07-21T08:30:40;20.73;56.69
69776;DHT22;57049;51.450;-2.516;2022-07-21T08:33:05;20.39;58.18
69776;DHT22;57049;51.450;-2.516;2022-07-21T08:35:31;20.53;58.34
69776;DHT22;57049;51.450;-2.516;2022-07-21T08:38:05;20.99;57.59
69776;DHT22;57049;51.450;-2.516;2022-07-21T08:40:34;20.72;57.91
69776;DHT22;57049;51.450;-2.516;2022-07-21T08:43:01;20.09;59.58
69776;DHT22;57049;51.450;-2.516;2022-07-21T08:45:27;19.70;60.54
69776;DHT22;57049;51.450;-2.516;2022-07-21T08:47:57;19.95;60.04
69776;DHT22;57049;51.450;-2.516;2022-07-21T08:50:25;19.68;61.15
69776;DHT22;57049;51.450;-2.516;2022-07-21T08:52:51;19.70;60.68
69776;DHT22;57049;51.450;-2.516;2022-07-21T08:55:16;19.85;60.68
69776;DHT22;57049;51.450;-2.516;2022-07-21T08:57:42;20.04;59.77
69776;DHT22;57049;51.450;-2.516;2022-07-21T09:00:09;20.05;59.98
69776;DHT22;57049;51.450;-2.516;2022-07-21T09:02:36;19.68;60.59
69776;DHT22;57049;51.450;-2.516;2022-07-21T09:05:07;20.24;60.49
69776;DHT22;57049;51.450;-2.516;2022-07-21T09:08:06;20.26;60.47
69776;DHT22;57049;51.450;-2.516;2022-07-21T09:10:32;19.98;60.03
69776;DHT22;57049;51.450;-2.516;2022-07-21T09:13:05;20.30;59.02
69776;DHT22;57049;51.450;-2.516;2022-07-21T09:15:32;20.93;57.80
69776;DHT22;57049;51.450;-2.516;2022-07-21T09:18:12;21.06;57.51
69776;DHT22;57049;51.450;-2.516;2022-07-21T09:20:51;20.96;57.10
69776;DHT22;57049;51.450;-2.516;2022-07-21T09:23:18;20.99;57.91
69776;DHT22;57049;51.450;-2.516;2022-07-21T09:26:04;21.47;56.36
69776;DHT22;57049;51.450;-2.516;2022-07-21T09:28:30;21.23;57.18
69776;DHT22;57049;51.450;-2.516;2022-07-21T09:31:05;21.63;55.74
69776;DHT22;57049;51.450;-2.516;2022-07-21T09:38:35;22.50;53.29
69776;DHT22;57049;51.450;-2.516;2022-07-21T09:41:12;24.38;49.48
69776;DHT22;57049;51.450;-2.516;2022-07-21T09:43:46;23.49;50.45
69776;DHT22;57049;51.450;-2.516;2022-07-21T09:46:19;22.71;52.40
69776;DHT22;57049;51.450;-2.516;2022-07-21T09:48:47;22.56;53.34
69776;DHT22;57049;51.450;-2.516;2022-07-21T09:51:33;23.29;51.17
69776;DHT22;57049;51.450;-2.516;2022-07-21T09:54:02;23.83;50.29
69776;DHT22;57049;51.450;-2.516;2022-07-21T09:56:46;24.00;49.46
69776;DHT22;57049;51.450;-2.516;2022-07-21T09:59:13;23.10;51.99
69776;DHT22;57049;51.450;-2.516;2022-07-21T10:01:39;22.24;53.35
69776;DHT22;57049;51.450;-2.516;2022-07-21T10:04:05;22.71;53.64
69776;DHT22;57049;51.450;-2.516;2022-07-21T10:06:33;22.71;53.35
69776;DHT22;57049;51.450;-2.516;2022-07-21T10:09:00;23.10;53.45
69776;DHT22;57049;51.450;-2.516;2022-07-21T10:11:27;22.46;54.21
69776;DHT22;57049;51.450;-2.516;2022-07-21T10:13:53;22.47;54.68
69776;DHT22;57049;51.450;-2.516;2022-07-21T10:16:18;22.84;53.34
69776;DHT22;57049;51.450;-2.516;2022-07-21T10:24:41;21.77;56.19
69776;DHT22;57049;51.450;-2.516;2022-07-21T10:27:10;21.89;56.96
69776;DHT22;57049;51.450;-2.516;2022-07-21T10:32:24;23.07;55.60
69776;DHT22;57049;51.450;-2.516;2022-07-21T10:34:52;22.10;55.07
69776;DHT22;57049;51.450;-2.516;2022-07-21T10:40:03;22.36;55.11
69776;DHT22;57049;51.450;-2.516;2022-07-21T10:42:28;22.14;56.51
69776;DHT22;57049;51.450;-2.516;2022-07-21T10:44:54;22.46;56.92
69776;DHT22;57049;51.450;-2.516;2022-07-21T10:47:21;22.24;56.20
69776;DHT22;57049;51.450;-2.516;2022-07-21T10:49:54;22.02;56.51
69776;DHT22;57049;51.450;-2.516;2022-07-21T10:57:36;22.32;57.39
69776;DHT22;57049;51.450;-2.516;2022-07-21T11:00:25;23.41;53.40
69776;DHT22;57049;51.450;-2.516;2022-07-21T11:02:56;23.73;52.59
69776;DHT22;57049;51.450;-2.516;2022-07-21T11:05:23;22.87;54.03
69776;DHT22;57049;51.450;-2.516;2022-07-21T11:10:33;22.98;55.37
69776;DHT22;57049;51.450;-2.516;2022-07-21T11:13:00;22.37;55.16
69776;DHT22;57049;51.450;-2.516;2022-07-21T11:15:57;21.91;56.38
69776;DHT22;57049;51.450;-2.516;2022-07-21T11:18:28;22.13;56.03
69776;DHT22;57049;51.450;-2.516;2022-07-21T11:21:07;22.36;55.65
69776;DHT22;57049;51.450;-2.516;2022-07-21T11:23:47;22.03;56.48
69776;DHT22;57049;51.450;-2.516;2022-07-21T11:26:16;21.99;56.08
69776;DHT22;57049;51.450;-2.516;2022-07-21T11:28:43;22.06;57.56
69776;DHT22;57049;51.450;-2.516;2022-07-21T11:31:18;22.42;56.12
69776;DHT22;57049;51.450;-2.516;2022-07-21T11:33:47;22.24;56.28
69776;DHT22;57049;51.450;-2.516;2022-07-21T11:36:28;22.22;56.80
69776;DHT22;57049;51.450;-2.516;2022-07-21T11:41:24;22.36;56.55
69776;DHT22;57049;51.450;-2.516;2022-07-21T11:43:49;22.50;56.02
69776;DHT22;57049;51.450;-2.516;2022-07-21T11:46:14;22.44;56.05
69776;DHT22;57049;51.450;-2.516;2022-07-21T11:48:40;22.35;56.85
69776;DHT22;57049;51.450;-2.516;2022-07-21T11:51:06;22.56;55.93
69776;DHT22;57049;51.450;-2.516;2022-07-21T11:53:32;22.63;56.00
69776;DHT22;57049;51.450;-2.516;2022-07-21T11:55:58;22.73;55.17
69776;DHT22;57049;51.450;-2.516;2022-07-21T11:58:23;22.54;55.83
69776;DHT22;57049;51.450;-2.516;2022-07-21T12:00:49;22.61;55.85
69776;DHT22;57049;51.450;-2.516;2022-07-21T12:03:14;22.52;55.56
69776;DHT22;57049;51.450;-2.516;2022-07-21T12:05:41;22.71;55.50
69776;DHT22;57049;51.450;-2.516;2022-07-21T12:08:07;22.68;55.50
69776;DHT22;57049;51.450;-2.516;2022-07-21T12:10:33;22.57;56.10
69776;DHT22;57049;51.450;-2.516;2022-07-21T12:13:02;22.52;56.32
69776;DHT22;57049;51.450;-2.516;2022-07-21T12:15:30;22.56;56.46
69776;DHT22;57049;51.450;-2.516;2022-07-21T12:18:04;22.50;56.12
69776;DHT22;57049;51.450;-2.516;2022-07-21T12:20:38;22.80;56.32
69776;DHT22;57049;51.450;-2.516;2022-07-21T12:23:25;22.73;55.83
69776;DHT22;57049;51.450;-2.516;2022-07-21T12:25:53;22.64;55.71
69776;DHT22;57049;51.450;-2.516;2022-07-21T12:28:19;23.07;54.80
69776;DHT22;57049;51.450;-2.516;2022-07-21T12:30:49;23.11;55.47
69776;DHT22;57049;51.450;-2.516;2022-07-21T12:35:44;23.24;54.82
69776;DHT22;57049;51.450;-2.516;2022-07-21T12:38:13;22.77;55.59
69776;DHT22;57049;51.450;-2.516;2022-07-21T12:40:46;22.52;56.63
69776;DHT22;57049;51.450;-2.516;2022-07-21T12:43:21;22.52;56.79
69776;DHT22;57049;51.450;-2.516;2022-07-21T12:48:19;22.56;57.11
69776;DHT22;57049;51.450;-2.516;2022-07-21T12:51:05;22.56;57.21
69776;DHT22;57049;51.450;-2.516;2022-07-21T12:53:33;22.60;57.19
69776;DHT22;57049;51.450;-2.516;2022-07-21T12:56:00;23.14;56.94
69776;DHT22;57049;51.450;-2.516;2022-07-21T12:58:26;22.71;56.10
69776;DHT22;57049;51.450;-2.516;2022-07-21T13:00:52;22.68;56.73
69776;DHT22;57049;51.450;-2.516;2022-07-21T13:03:18;22.68;57.12
69776;DHT22;57049;51.450;-2.516;2022-07-21T13:05:44;22.78;56.36
69776;DHT22;57049;51.450;-2.516;2022-07-21T13:08:09;22.64;56.50
69776;DHT22;57049;51.450;-2.516;2022-07-21T13:10:35;23.18;55.39
69776;DHT22;57049;51.450;-2.516;2022-07-21T13:13:00;23.19;55.35
69776;DHT22;57049;51.450;-2.516;2022-07-21T13:15:26;22.97;55.88
69776;DHT22;57049;51.450;-2.516;2022-07-21T13:17:52;23.14;55.64
69776;DHT22;57049;51.450;-2.516;2022-07-21T13:20:17;23.24;56.38
69776;DHT22;57049;51.450;-2.516;2022-07-21T13:22:43;23.58;54.60
69776;DHT22;57049;51.450;-2.516;2022-07-21T13:25:09;23.38;55.13
69776;DHT22;57049;51.450;-2.516;2022-07-21T13:27:35;23.45;54.09
69776;DHT22;57049;51.450;-2.516;2022-07-21T13:30:05;23.39;54.19
69776;DHT22;57049;51.450;-2.516;2022-07-21T13:32:33;23.46;54.40
69776;DHT22;57049;51.450;-2.516;2022-07-21T13:34:58;23.65;55.08
69776;DHT22;57049;51.450;-2.516;2022-07-21T13:37:24;23.86;52.92
69776;DHT22;57049;51.450;-2.516;2022-07-21T13:39:49;23.69;53.67
69776;DHT22;57049;51.450;-2.516;2022-07-21T13:42:15;23.34;55.05
69776;DHT22;57049;51.450;-2.516;2022-07-21T13:44:40;23.52;54.47
69776;DHT22;57049;51.450;-2.516;2022-07-21T13:47:06;23.59;54.48
69776;DHT22;57049;51.450;-2.516;2022-07-21T13:49:31;23.34;54.96
69776;DHT22;57049;51.450;-2.516;2022-07-21T13:51:57;23.66;54.36
69776;DHT22;57049;51.450;-2.516;2022-07-21T13:54:22;23.38;54.56
69776;DHT22;57049;51.450;-2.516;2022-07-21T13:56:48;23.12;55.40
69776;DHT22;57049;51.450;-2.516;2022-07-21T13:59:14;23.39;55.31
69776;DHT22;57049;51.450;-2.516;2022-07-21T14:01:39;23.24;55.33
69776;DHT22;57049;51.450;-2.516;2022-07-21T14:04:04;23.07;54.84
69776;DHT22;57049;51.450;-2.516;2022-07-21T14:06:30;22.97;55.99
69776;DHT22;57049;51.450;-2.516;2022-07-21T14:08:55;23.04;56.21
69776;DHT22;57049;51.450;-2.516;2022-07-21T14:11:21;23.18;56.20
69776;DHT22;57049;51.450;-2.516;2022-07-21T14:13:49;22.88;55.91
69776;DHT22;57049;51.450;-2.516;2022-07-21T14:16:14;23.00;56.52
69776;DHT22;57049;51.450;-2.516;2022-07-21T14:18:40;23.16;55.38
69776;DHT22;57049;51.450;-2.516;2022-07-21T14:21:06;23.19;55.39
69776;DHT22;57049;51.450;-2.516;2022-07-21T14:23:32;23.21;55.67
69776;DHT22;57049;51.450;-2.516;2022-07-21T14:25:58;23.31;55.26
69776;DHT22;57049;51.450;-2.516;2022-07-21T14:28:23;23.21;54.27
69776;DHT22;57049;51.450;-2.516;2022-07-21T14:30:49;23.18;54.82
69776;DHT22;57049;51.450;-2.516;2022-07-21T14:33:15;23.25;55.01
69776;DHT22;57049;51.450;-2.516;2022-07-21T14:35:40;23.21;54.43
69776;DHT22;57049;51.450;-2.516;2022-07-21T14:38:06;23.07;54.41
69776;DHT22;57049;51.450;-2.516;2022-07-21T14:40:31;23.00;57.16
69776;DHT22;57049;51.450;-2.516;2022-07-21T14:42:57;23.05;56.93
69776;DHT22;57049;51.450;-2.516;2022-07-21T14:45:23;23.04;56.93
69776;DHT22;57049;51.450;-2.516;2022-07-21T14:47:50;22.98;55.77
69776;DHT22;57049;51.450;-2.516;2022-07-21T14:50:16;22.98;58.52
69776;DHT22;57049;51.450;-2.516;2022-07-21T14:52:42;23.08;56.48
69776;DHT22;57049;51.450;-2.516;2022-07-21T14:55:09;23.11;55.48
69776;DHT22;57049;51.450;-2.516;2022-07-21T14:57:34;22.97;56.59
69776;DHT22;57049;51.450;-2.516;2022-07-21T15:00:04;23.04;57.09
69776;DHT22;57049;51.450;-2.516;2022-07-21T15:02:30;23.10;55.81
69776;DHT22;57049;51.450;-2.516;2022-07-21T15:04:55;23.16;55.74
69776;DHT22;57049;51.450;-2.516;2022-07-21T15:07:20;23.10;55.37
69776;DHT22;57049;51.450;-2.516;2022-07-21T15:09:46;23.08;55.83
69776;DHT22;57049;51.450;-2.516;2022-07-21T15:12:11;23.15;56.10
69776;DHT22;57049;51.450;-2.516;2022-07-21T15:14:38;23.04;55.62
69776;DHT22;57049;51.450;-2.516;2022-07-21T15:17:03;23.08;55.26
69776;DHT22;57049;51.450;-2.516;2022-07-21T15:19:29;22.97;55.99
69776;DHT22;57049;51.450;-2.516;2022-07-21T15:21:55;23.00;55.94
69776;DHT22;57049;51.450;-2.516;2022-07-21T15:24:21;23.00;55.55
69776;DHT22;57049;51.450;-2.516;2022-07-21T15:26:46;22.87;55.86
69776;DHT22;57049;51.450;-2.516;2022-07-21T15:29:12;22.88;56.29
69776;DHT22;57049;51.450;-2.516;2022-07-21T15:31:37;22.87;55.98
69776;DHT22;57049;51.450;-2.516;2022-07-21T15:34:03;22.68;56.56
69776;DHT22;57049;51.450;-2.516;2022-07-21T15:36:29;22.44;56.73
69776;DHT22;57049;51.450;-2.516;2022-07-21T15:38:56;22.53;57.02
69776;DHT22;57049;51.450;-2.516;2022-07-21T15:41:23;22.50;56.83
69776;DHT22;57049;51.450;-2.516;2022-07-21T15:43:48;22.37;56.81
69776;DHT22;57049;51.450;-2.516;2022-07-21T15:46:14;22.63;57.09